Time;durP1;ratioP1;P1;durP2;ratioP2;P2;SDS_P1;SDS_P2;PMS_P1;PMS_P2;Temp;Humidity;BMP_temperature;BMP_pressure;BME280_temperature;BME280_humidity;BME280_pressure;Samples;Min_cycle;Max_cycle;Signal;HPM_P1;HPM_P2
2022/04/05 00:00:11;;;;;;;2.28;1.70;;;-5.10;99.90;;;;;;4973157;28;20493;-69
2022/04/05 00:02:37;;;;;;;5.28;1.90;;;-5.20;99.90;;;;;;4973196;28;20034;-69
2022/04/05 00:05:03;;;;;;;2.50;1.90;;;-5.20;99.90;;;;;;4972865;28;20430;-69
2022/04/05 00:07:28;;;;;;;3.03;1.90;;;-5.20;99.90;;;;;;4973291;28;20062;-68
2022/04/05 00:09:54;;;;;;;2.08;1.88;;;-5.20;99.90;;;;;;4972929;28;20062;-68
2022/04/05 00:12:20;;;;;;;2.10;1.90;;;-5.30;99.90;;;;;;4973032;28;20087;-68
2022/04/05 00:14:49;;;;;;;2.10;1.85;;;-5.30;99.90;;;;;;4971822;28;20026;-68
2022/04/05 00:17:15;;;;;;;2.28;1.75;;;-5.30;99.90;;;;;;4972959;28;20041;-68
2022/04/05 00:19:41;;;;;;;8.40;1.98;;;-5.30;99.90;;;;;;4972881;28;20027;-68
2022/04/05 00:22:06;;;;;;;1.90;1.48;;;-5.40;99.90;;;;;;4972726;28;20027;-68
2022/04/05 00:24:32;;;;;;;2.88;2.00;;;-5.40;99.90;;;;;;4973238;28;20038;-68
2022/04/05 00:26:58;;;;;;;3.42;2.20;;;-5.40;99.90;;;;;;4972721;28;20463;-68
2022/04/05 00:29:24;;;;;;;1.60;1.50;;;-5.40;99.90;;;;;;4973029;28;20023;-68
2022/04/05 00:31:50;;;;;;;2.10;1.85;;;-5.40;99.90;;;;;;4972826;28;20478;-68
2022/04/05 00:34:16;;;;;;;1.85;1.70;;;-5.40;99.90;;;;;;4973324;28;20364;-68
2022/04/05 00:36:42;;;;;;;3.53;1.92;;;-5.50;99.90;;;;;;4972590;28;20033;-68
2022/04/05 00:39:08;;;;;;;1.73;1.63;;;-5.50;99.90;;;;;;4972870;28;20121;-68
2022/04/05 00:41:34;;;;;;;2.05;1.83;;;-5.50;99.90;;;;;;4972863;28;20043;-68
2022/04/05 00:43:59;;;;;;;2.13;1.92;;;-5.50;99.90;;;;;;4973019;28;20433;-68
2022/04/05 00:46:25;;;;;;;2.55;2.00;;;-5.50;99.90;;;;;;4975650;28;20027;-68
2022/04/05 00:48:55;;;;;;;1.90;1.70;;;-5.50;99.90;;;;;;4976747;28;20022;-69
2022/04/05 00:51:23;;;;;;;2.20;2.00;;;-5.50;99.90;;;;;;4976472;28;20530;-69
2022/04/05 00:53:54;;;;;;;2.00;1.80;;;-5.50;99.90;;;;;;4976398;28;20254;-68
2022/04/05 00:56:21;;;;;;;1.55;1.45;;;-5.50;99.90;;;;;;4976993;28;20374;-69
2022/04/05 00:58:49;;;;;;;2.50;2.10;;;-5.50;99.90;;;;;;4976513;28;20555;-69
2022/04/05 01:01:18;;;;;;;1.65;1.55;;;-5.60;99.90;;;;;;4976450;28;20066;-68
2022/04/05 01:03:49;;;;;;;2.00;1.80;;;-5.60;99.90;;;;;;4976740;28;20057;-68
2022/04/05 01:06:22;;;;;;;1.50;1.40;;;-5.70;99.90;;;;;;4976327;28;20086;-68
2022/04/05 01:08:49;;;;;;;2.05;1.85;;;-5.60;99.90;;;;;;4976618;28;20089;-69
2022/04/05 01:11:15;;;;;;;1.90;1.80;;;-5.60;99.90;;;;;;4976287;28;20031;-69
2022/04/05 01:13:41;;;;;;;2.03;1.70;;;-5.60;99.90;;;;;;4976027;28;20031;-69
2022/04/05 01:16:07;;;;;;;2.63;1.88;;;-5.70;99.90;;;;;;4976507;28;20395;-69
2022/04/05 01:18:34;;;;;;;2.38;2.03;;;-5.70;99.90;;;;;;4976023;28;20027;-69
2022/04/05 01:21:00;;;;;;;1.85;1.75;;;-5.70;99.90;;;;;;4976416;28;20106;-69
2022/04/05 01:23:26;;;;;;;1.80;1.60;;;-5.70;99.90;;;;;;4975891;28;20042;-69
2022/04/05 01:25:52;;;;;;;2.53;1.80;;;-5.70;99.90;;;;;;4975772;28;20027;-69
2022/04/05 01:28:19;;;;;;;2.80;2.15;;;-5.70;99.90;;;;;;4976148;28;20097;-69
2022/04/05 01:30:45;;;;;;;2.42;1.63;;;-5.70;99.90;;;;;;4975937;28;20081;-69
2022/04/05 01:33:11;;;;;;;2.60;2.00;;;-5.70;99.90;;;;;;4975851;28;20031;-69
2022/04/05 01:35:36;;;;;;;1.92;1.80;;;-5.70;99.90;;;;;;4975789;28;20039;-69
2022/04/05 01:38:07;;;;;;;3.97;2.13;;;-5.70;99.90;;;;;;4975435;28;20467;-68
2022/04/05 01:40:33;;;;;;;2.25;2.00;;;-5.70;99.90;;;;;;4975714;28;20019;-68
2022/04/05 01:42:59;;;;;;;2.03;1.83;;;-5.70;99.90;;;;;;4975387;28;20043;-68
2022/04/05 01:45:24;;;;;;;1.83;1.70;;;-5.70;99.90;;;;;;4975585;28;20479;-68
2022/04/05 01:47:51;;;;;;;2.60;1.92;;;-5.70;99.90;;;;;;4975483;28;20033;-68
2022/04/05 01:50:17;;;;;;;2.13;1.90;;;-5.70;99.90;;;;;;4975672;28;20037;-68
2022/04/05 01:52:43;;;;;;;1.95;1.63;;;-5.70;99.90;;;;;;4974133;28;20379;-68
2022/04/05 01:55:09;;;;;;;2.80;2.20;;;-5.70;99.90;;;;;;4975365;28;20042;-67
2022/04/05 01:57:35;;;;;;;4.00;2.22;;;-5.70;99.90;;;;;;4974306;28;20041;-67
2022/04/05 02:00:02;;;;;;;2.72;1.75;;;-5.70;99.90;;;;;;4975248;28;20026;-67
2022/04/05 02:02:28;;;;;;;5.63;1.98;;;-5.70;99.90;;;;;;4975118;28;20041;-67
2022/04/05 02:04:54;;;;;;;2.28;2.08;;;-5.80;99.90;;;;;;4975281;28;20026;-67
2022/04/05 02:07:21;;;;;;;4.00;1.67;;;-5.70;99.90;;;;;;4975179;28;20094;-67
2022/04/05 02:09:49;;;;;;;1.98;1.88;;;-5.70;99.90;;;;;;4973771;28;20372;-67
2022/04/05 02:12:18;;;;;;;2.45;1.98;;;-5.80;99.90;;;;;;4974878;28;20037;-67
2022/04/05 02:14:44;;;;;;;3.13;1.98;;;-5.80;99.90;;;;;;4975322;28;20434;-67
2022/04/05 02:17:11;;;;;;;1.75;1.65;;;-5.70;99.90;;;;;;4975086;28;20046;-67
2022/04/05 02:19:38;;;;;;;2.30;2.10;;;-5.70;99.90;;;;;;4974947;28;20063;-67
2022/04/05 02:22:04;;;;;;;1.92;1.83;;;-5.80;99.90;;;;;;4961984;28;20062;-67
2022/04/05 02:55:59;;;;;;;1.80;1.67;;;-5.90;99.90;;;;;;4954019;29;20384;-66
2022/04/05 02:58:25;;;;;;;2.00;1.80;;;-5.90;99.90;;;;;;4937669;29;20074;-66
2022/04/05 03:00:51;;;;;;;2.00;1.80;;;-5.90;99.90;;;;;;4954780;29;20020;-66
2022/04/05 03:37:00;;;;;;;4.10;1.80;;;-5.80;99.90;;;;;;5780153;23;20047;-68
2022/04/05 03:39:25;;;;;;;1.90;1.80;;;-5.90;99.90;;;;;;4954565;29;20023;-70
2022/04/05 03:41:51;;;;;;;4.88;1.60;;;-6.00;99.90;;;;;;4954513;29;20047;-69
2022/04/05 03:44:17;;;;;;;3.63;1.63;;;-6.00;99.90;;;;;;4954017;29;20367;-69
2022/04/05 03:46:42;;;;;;;2.45;1.80;;;-6.00;99.90;;;;;;4954123;29;20114;-69
2022/04/05 03:49:08;;;;;;;1.77;1.67;;;-6.00;99.90;;;;;;4936882;29;20039;-67
2022/04/05 03:51:34;;;;;;;2.72;1.90;;;-6.10;99.90;;;;;;4954112;29;20034;-66
2022/04/05 03:53:59;;;;;;;2.05;1.90;;;-6.10;99.90;;;;;;4937819;29;20027;-66
2022/04/05 03:56:25;;;;;;;2.60;1.70;;;-6.10;99.90;;;;;;4954319;29;20110;-66
2022/04/05 03:58:51;;;;;;;2.95;1.58;;;-6.10;99.90;;;;;;4953961;29;20027;-66
2022/04/05 04:01:17;;;;;;;2.10;1.90;;;-6.10;99.90;;;;;;4953874;29;20419;-66
2022/04/05 04:03:43;;;;;;;2.95;1.73;;;-6.10;99.90;;;;;;4954080;29;20035;-66
2022/04/05 04:06:09;;;;;;;2.50;1.85;;;-6.10;99.90;;;;;;4954202;29;20426;-71
2022/04/05 04:08:35;;;;;;;2.40;2.20;;;-6.00;99.90;;;;;;4953970;29;20033;-67
2022/04/05 04:11:02;;;;;;;1.98;1.80;;;-6.10;99.90;;;;;;4953806;29;20034;-67
2022/04/05 04:13:28;;;;;;;1.75;1.65;;;-6.10;99.90;;;;;;4953954;29;20030;-68
2022/04/05 04:15:54;;;;;;;1.90;1.77;;;-6.20;99.90;;;;;;4953922;29;20027;-67
2022/04/05 04:18:20;;;;;;;2.53;1.77;;;-6.20;99.90;;;;;;4953632;29;20628;-71
2022/04/05 04:20:46;;;;;;;1.80;1.60;;;-6.20;99.90;;;;;;4958185;28;20038;-65
2022/04/05 04:23:11;;;;;;;2.38;1.90;;;-6.10;99.90;;;;;;4959719;29;20660;-67
2022/04/05 04:25:37;;;;;;;1.92;1.73;;;-6.10;99.90;;;;;;4969138;28;20467;-70
2022/04/05 04:28:07;;;;;;;2.58;1.92;;;-6.20;99.90;;;;;;4978623;28;20042;-71
2022/04/05 04:30:35;;;;;;;1.80;1.70;;;-6.10;99.90;;;;;;4958838;28;20029;-75
2022/04/05 04:33:01;;;;;;;1.73;1.63;;;-6.00;99.90;;;;;;4960983;28;20067;-74
2022/04/05 04:35:28;;;;;;;2.47;1.80;;;-6.00;99.90;;;;;;4978880;28;20125;-73
2022/04/05 04:37:54;;;;;;;1.85;1.50;;;-6.10;99.90;;;;;;4974577;28;20035;-69
2022/04/05 04:40:20;;;;;;;1.63;1.52;;;-6.20;99.90;;;;;;4975275;28;20026;-69
2022/04/05 04:42:47;;;;;;;1.88;1.67;;;-6.30;99.90;;;;;;4978324;28;20038;-69
2022/04/05 04:45:13;;;;;;;1.83;1.73;;;-6.40;99.90;;;;;;4978466;28;20019;-69
2022/04/05 04:47:39;;;;;;;3.08;1.75;;;-6.40;99.90;;;;;;4978221;28;20046;-70
2022/04/05 04:50:07;;;;;;;1.60;1.50;;;-6.50;99.90;;;;;;4976799;28;20030;-69
2022/04/05 04:52:33;;;;;;;1.83;1.73;;;-6.50;99.90;;;;;;4977891;28;20129;-69
2022/04/05 04:54:58;;;;;;;3.15;1.55;;;-6.40;99.90;;;;;;4972917;28;20051;-69
2022/04/05 04:57:25;;;;;;;2.20;1.70;;;-6.50;99.90;;;;;;4959383;28;20023;-67
2022/04/05 04:59:52;;;;;;;1.77;1.58;;;-6.50;99.90;;;;;;4959671;28;20376;-67
2022/04/05 05:02:19;;;;;;;2.20;1.58;;;-6.50;99.90;;;;;;4960624;28;20038;-67
2022/04/05 05:04:44;;;;;;;1.63;1.52;;;-6.40;99.90;;;;;;4979083;28;20018;-68
2022/04/05 05:07:10;;;;;;;1.50;1.40;;;-6.30;99.90;;;;;;4979071;28;20033;-72
2022/04/05 05:09:36;;;;;;;1.80;1.70;;;-6.10;99.90;;;;;;4979116;28;20394;-75
2022/04/05 05:12:02;;;;;;;2.40;1.90;;;-5.70;99.90;;;;;;4978770;28;20023;-67
2022/04/05 05:14:28;;;;;;;1.70;1.60;;;-5.20;99.90;;;;;;4979192;28;20034;-66
2022/04/05 05:16:54;;;;;;;4.60;1.90;;;-4.80;99.90;;;;;;4978984;28;20019;-68
2022/04/05 05:19:22;;;;;;;2.00;1.90;;;-4.50;99.90;;;;;;4978803;28;20042;-70
2022/04/05 05:21:48;;;;;;;3.53;1.73;;;-4.20;99.90;;;;;;4978972;28;20490;-70
2022/04/05 05:24:14;;;;;;;4.75;1.88;;;-4.00;99.90;;;;;;4978908;28;20058;-82
2022/04/05 05:26:40;;;;;;;3.45;1.65;;;-3.50;99.90;;;;;;4979120;28;20018;-79
2022/04/05 05:29:05;;;;;;;2.10;1.90;;;-3.30;99.90;;;;;;4979239;28;20031;-77
2022/04/05 05:31:31;;;;;;;1.50;1.23;;;-2.90;99.90;;;;;;4977752;28;20382;-68
2022/04/05 05:33:57;;;;;;;4.43;1.50;;;-2.40;99.90;;;;;;4976093;28;20121;-65
2022/04/05 05:36:23;;;;;;;3.67;1.63;;;-2.10;99.90;;;;;;4975426;28;20057;-65
2022/04/05 05:38:49;;;;;;;1.60;1.50;;;-2.00;99.50;;;;;;4975481;28;20450;-65
2022/04/05 05:41:15;;;;;;;2.85;1.90;;;-1.80;99.90;;;;;;4975570;28;20027;-68
2022/04/05 05:43:45;;;;;;;2.88;1.52;;;-1.60;96.70;;;;;;4975560;28;20086;-67
2022/04/05 05:46:14;;;;;;;4.78;3.38;;;-1.20;99.90;;;;;;4975582;28;20098;-66
2022/04/05 05:48:40;;;;;;;27.27;9.02;;;-1.00;95.00;;;;;;4975675;28;20027;-66
2022/04/05 05:51:06;;;;;;;5.70;2.40;;;-1.00;95.90;;;;;;4975374;28;20552;-66
2022/04/05 05:53:33;;;;;;;3.00;1.80;;;-0.80;94.80;;;;;;4975362;28;20768;-66
2022/04/05 05:55:59;;;;;;;2.17;1.98;;;-0.70;93.40;;;;;;4975767;28;20073;-67
2022/04/05 05:58:24;;;;;;;1.90;1.52;;;-0.60;92.00;;;;;;4975163;28;20056;-67
2022/04/05 06:00:51;;;;;;;1.50;1.40;;;-0.60;90.90;;;;;;4975622;28;20035;-67
2022/04/05 06:03:17;;;;;;;0.98;0.93;;;-0.50;91.30;;;;;;4975039;28;20030;-67
2022/04/05 06:05:43;;;;;;;2.53;1.38;;;-0.40;89.10;;;;;;4975180;28;20101;-67
2022/04/05 06:08:09;;;;;;;2.47;1.48;;;-0.30;90.40;;;;;;4975027;28;20524;-67
2022/04/05 06:10:35;;;;;;;5.68;1.30;;;-0.20;88.60;;;;;;4975233;28;20042;-67
2022/04/05 06:13:01;;;;;;;2.83;1.17;;;-0.20;87.60;;;;;;4975160;28;20031;-67
2022/04/05 06:15:29;;;;;;;1.10;1.00;;;-0.20;89.20;;;;;;4975021;28;20019;-67
2022/04/05 06:17:57;;;;;;;3.90;1.30;;;-0.10;86.80;;;;;;4975310;28;20118;-74
2022/04/05 06:20:24;;;;;;;1.95;1.40;;;-0.30;85.50;;;;;;4974937;28;20030;-70
2022/04/05 06:22:58;;;;;;;2.92;1.40;;;-0.40;87.10;;;;;;4974838;28;20625;-71
2022/04/05 06:25:36;;;;;;;1.90;1.30;;;-0.40;88.40;;;;;;4975093;28;20027;-69
2022/04/05 06:28:07;;;;;;;1.42;1.33;;;1.30;99.90;;;;;;4973160;28;20031;-69
2022/04/05 06:30:35;;;;;;;1.63;1.50;;;1.50;86.20;;;;;;4974068;28;20037;-69
2022/04/05 06:33:09;;;;;;;2.35;1.13;;;0.80;82.00;;;;;;4974937;28;20144;-69
2022/04/05 06:35:44;;;;;;;3.75;1.20;;;0.50;81.40;;;;;;4974949;28;20086;-68
2022/04/05 06:38:10;;;;;;;1.23;1.15;;;0.40;92.90;;;;;;4974333;28;20046;-68
2022/04/05 06:40:36;;;;;;;1.50;1.15;;;0.90;89.00;;;;;;4974650;28;20041;-68
2022/04/05 06:43:02;;;;;;;1.30;1.20;;;1.00;90.00;;;;;;4962374;28;20490;-69
2022/04/05 06:45:29;;;;;;;2.03;1.38;;;1.20;85.70;;;;;;4969532;28;20402;-69
2022/04/05 06:47:55;;;;;;;1.52;1.42;;;1.40;83.80;;;;;;4969342;28;20026;-69
2022/04/05 06:50:24;;;;;;;1.52;1.20;;;1.50;83.20;;;;;;4967428;28;20069;-70
2022/04/05 06:52:51;;;;;;;1.30;1.20;;;1.60;82.60;;;;;;4973655;28;20023;-70
2022/04/05 06:55:17;;;;;;;2.55;1.35;;;1.60;81.50;;;;;;4973365;28;20033;-68
2022/04/05 06:57:43;;;;;;;3.85;1.30;;;1.50;80.20;;;;;;4955736;28;20051;-78
2022/04/05 07:00:11;;;;;;;1.27;1.17;;;1.40;78.90;;;;;;4970598;28;20030;-74
2022/04/05 07:02:37;;;;;;;1.10;1.00;;;1.30;80.40;;;;;;4972334;28;20035;-68
2022/04/05 07:05:04;;;;;;;1.98;1.00;;;1.50;81.00;;;;;;4960147;28;20487;-68
2022/04/05 07:07:30;;;;;;;3.45;1.10;;;1.50;79.90;;;;;;4970132;28;20063;-68
2022/04/05 07:09:56;;;;;;;1.73;1.35;;;1.40;79.30;;;;;;4968965;28;20047;-68
2022/04/05 07:12:23;;;;;;;1.45;1.10;;;1.40;79.00;;;;;;4961638;28;20027;-77
2022/04/05 07:14:49;;;;;;;1.92;1.10;;;1.30;79.00;;;;;;4962012;28;20082;-68
2022/04/05 07:17:15;;;;;;;2.97;1.08;;;1.30;79.90;;;;;;4968930;28;20114;-70
2022/04/05 07:19:41;;;;;;;1.50;1.35;;;1.30;79.20;;;;;;4973703;28;20109;-69
2022/04/05 07:22:06;;;;;;;1.13;1.00;;;1.20;78.80;;;;;;4973653;28;20042;-68
2022/04/05 07:24:32;;;;;;;3.25;1.13;;;1.20;79.00;;;;;;4973622;28;20026;-68
2022/04/05 07:26:58;;;;;;;1.00;1.00;;;1.00;77.90;;;;;;4973921;28;20110;-67
2022/04/05 07:29:23;;;;;;;1.50;1.40;;;0.90;78.70;;;;;;4973333;28;20129;-66
2022/04/05 07:31:49;;;;;;;1.30;1.20;;;1.40;99.90;;;;;;4973629;28;20042;-69
2022/04/05 07:34:15;;;;;;;0.90;0.90;;;3.50;99.90;;;;;;4973495;28;20033;-69
2022/04/05 07:36:41;;;;;;;1.13;1.00;;;2.90;80.00;;;;;;4973626;28;20110;-68
2022/04/05 07:39:07;;;;;;;1.45;1.13;;;1.50;77.50;;;;;;4973396;28;20047;-68
2022/04/05 07:41:33;;;;;;;1.40;1.30;;;0.80;79.00;;;;;;4973562;28;20430;-69
2022/04/05 07:43:59;;;;;;;1.00;1.00;;;0.40;81.30;;;;;;4973657;28;20025;-69
2022/04/05 07:46:24;;;;;;;1.20;1.10;;;0.10;82.90;;;;;;4973409;28;20485;-68
2022/04/05 07:48:50;;;;;;;1.15;1.05;;;0.10;84.00;;;;;;4972932;28;20418;-68
2022/04/05 07:51:17;;;;;;;1.90;1.30;;;-0.10;84.80;;;;;;4972282;28;20034;-68
2022/04/05 07:53:43;;;;;;;1.48;1.38;;;-0.40;85.90;;;;;;4973271;28;20117;-68
2022/04/05 07:56:12;;;;;;;1.02;1.00;;;-0.50;87.50;;;;;;4972445;28;20466;-68
2022/04/05 07:58:42;;;;;;;1.70;1.17;;;-0.50;87.50;;;;;;4973162;28;20042;-68
2022/04/05 08:01:09;;;;;;;0.80;0.80;;;-0.70;87.00;;;;;;4971902;28;20077;-68
2022/04/05 08:03:35;;;;;;;1.35;1.20;;;-0.80;88.10;;;;;;4973078;28;20553;-68
2022/04/05 08:06:02;;;;;;;2.38;1.10;;;-0.80;90.00;;;;;;4973205;28;20070;-68
2022/04/05 08:08:28;;;;;;;2.05;1.20;;;-0.70;90.00;;;;;;4972968;28;20056;-68
2022/04/05 08:10:55;;;;;;;1.00;1.00;;;-0.70;90.00;;;;;;4973438;28;20498;-68
2022/04/05 08:13:22;;;;;;;1.00;1.00;;;-0.80;90.00;;;;;;4973154;28;20394;-68
2022/04/05 08:15:48;;;;;;;1.30;1.20;;;-0.90;90.00;;;;;;4973401;28;20031;-68
2022/04/05 08:18:14;;;;;;;1.30;1.20;;;-1.00;90.00;;;;;;4972908;28;20027;-68
2022/04/05 08:20:41;;;;;;;1.48;1.25;;;-0.90;90.90;;;;;;4973036;28;20025;-68
2022/04/05 08:23:10;;;;;;;1.25;1.15;;;-0.80;90.30;;;;;;4973006;28;20513;-68
2022/04/05 08:25:37;;;;;;;1.92;1.50;;;-0.80;89.90;;;;;;4972896;28;20038;-68
2022/04/05 08:28:04;;;;;;;1.83;1.50;;;-0.80;90.10;;;;;;4972947;28;20097;-68
2022/04/05 08:30:30;;;;;;;1.25;1.15;;;-0.70;90.40;;;;;;4972958;28;20471;-68
2022/04/05 08:32:56;;;;;;;1.25;1.15;;;-0.60;89.90;;;;;;4972915;28;20086;-68
2022/04/05 08:35:22;;;;;;;1.30;1.20;;;-0.60;90.40;;;;;;4972631;28;20019;-68
2022/04/05 08:37:51;;;;;;;1.80;1.20;;;-0.70;90.00;;;;;;4972671;28;20532;-68
2022/04/05 08:40:19;;;;;;;2.05;1.30;;;-0.70;90.20;;;;;;4971349;28;20023;-68
2022/04/05 08:42:53;;;;;;;1.80;1.30;;;-0.60;89.00;;;;;;4972632;28;20402;-68
2022/04/05 08:45:20;;;;;;;1.40;1.30;;;-0.50;89.90;;;;;;4972546;28;20029;-68
2022/04/05 08:47:49;;;;;;;1.35;1.25;;;-0.40;88.10;;;;;;4973023;28;20390;-68
2022/04/05 08:50:17;;;;;;;1.50;1.40;;;-0.50;87.90;;;;;;4972582;28;20046;-68
2022/04/05 08:52:45;;;;;;;1.50;1.40;;;-0.60;87.30;;;;;;4972657;28;20445;-68
2022/04/05 08:55:12;;;;;;;3.08;2.22;;;-0.60;86.60;;;;;;4972836;28;20093;-68
2022/04/05 08:57:38;;;;;;;1.42;1.30;;;-0.60;86.30;;;;;;4971436;28;20038;-69
2022/04/05 09:00:08;;;;;;;1.58;1.30;;;-0.70;86.40;;;;;;4972570;28;20027;-68
2022/04/05 09:02:34;;;;;;;;;;;-0.60;88.60;;;;;;4973178;28;20042;-68
2022/04/05 09:05:00;;;;;;;1.65;1.40;;;-0.50;88.00;;;;;;4972768;28;19906;-68
2022/04/05 09:07:34;;;;;;;1.02;1.02;;;-0.40;88.00;;;;;;4975529;28;20097;-68
2022/04/05 09:10:11;;;;;;;1.52;1.42;;;-0.30;87.60;;;;;;4976205;28;20111;-69
2022/04/05 09:12:47;;;;;;;2.22;1.70;;;-0.40;88.20;;;;;;4976288;28;20489;-69
2022/04/05 09:15:16;;;;;;;1.90;1.55;;;-0.30;87.60;;;;;;4958574;28;20030;-69
2022/04/05 09:17:44;;;;;;;2.17;1.88;;;-0.40;87.20;;;;;;4976052;28;20121;-68
2022/04/05 09:20:11;;;;;;;3.45;1.40;;;-0.40;87.50;;;;;;4975983;28;20023;-68
2022/04/05 09:22:38;;;;;;;1.48;1.38;;;-0.40;88.40;;;;;;4976215;28;20125;-68
2022/04/05 09:25:08;;;;;;;1.33;1.23;;;-0.50;87.50;;;;;;4975746;28;20027;-68
2022/04/05 09:27:51;;;;;;;;;;;-0.60;85.70;;;;;;4976126;28;20031;-68
2022/04/05 09:30:28;;;;;;;2.13;1.70;;;-0.60;87.80;;;;;;4975511;28;19906;-69
2022/04/05 09:32:57;;;;;;;2.53;1.63;;;-0.60;85.90;;;;;;4975985;28;20038;-69
2022/04/05 09:35:43;;;;;;;2.10;1.83;;;-0.60;87.70;;;;;;4975762;28;20031;-69
2022/04/05 09:38:17;;;;;;;3.38;1.85;;;-0.60;89.40;;;;;;4975185;28;20047;-69
2022/04/05 09:40:43;;;;;;;2.65;1.52;;;-0.50;89.50;;;;;;4975584;28;20538;-69
2022/04/05 09:43:17;;;;;;;2.10;1.90;;;-0.40;87.20;;;;;;4975606;28;20046;-69
2022/04/05 09:45:47;;;;;;;1.65;1.50;;;-0.30;88.60;;;;;;4975834;28;20082;-69
2022/04/05 09:48:14;;;;;;;1.40;1.30;;;-0.40;87.30;;;;;;4975568;28;20041;-69
2022/04/05 09:51:00;;;;;;;1.90;1.80;;;-0.40;86.30;;;;;;4975599;28;20258;-69
2022/04/05 09:53:40;;;;;;;3.60;2.17;;;-0.40;86.30;;;;;;4975455;28;20031;-69
2022/04/05 09:56:20;;;;;;;2.03;1.80;;;-0.40;86.30;;;;;;4975411;28;20066;-69
2022/04/05 09:58:49;;;;;;;2.10;1.77;;;-0.30;87.30;;;;;;4975269;28;20027;-69
2022/04/05 10:01:16;;;;;;;1.90;1.80;;;-0.40;84.30;;;;;;4975173;28;20275;-69
2022/04/05 10:03:43;;;;;;;3.08;1.65;;;-0.60;85.40;;;;;;4975346;28;20061;-69
2022/04/05 10:06:09;;;;;;;3.40;1.88;;;-0.60;86.90;;;;;;4975494;28;20031;-69
2022/04/05 10:08:36;;;;;;;2.05;1.85;;;-0.50;87.30;;;;;;4974936;28;20038;-69
2022/04/05 10:11:03;;;;;;;2.17;1.92;;;-0.50;86.80;;;;;;4975066;28;20026;-69
2022/04/05 10:13:30;;;;;;;3.13;1.70;;;-0.50;86.70;;;;;;4975170;28;20023;-69
2022/04/05 10:15:57;;;;;;;2.03;1.83;;;-0.50;86.30;;;;;;4974937;28;20038;-69
2022/04/05 10:18:31;;;;;;;2.20;1.58;;;-0.50;86.60;;;;;;4973974;28;20058;-69
2022/04/05 10:20:58;;;;;;;3.22;1.88;;;-0.60;86.30;;;;;;4975021;28;20038;-69
2022/04/05 10:23:24;;;;;;;2.30;1.90;;;-0.70;85.20;;;;;;4974668;28;20073;-69
2022/04/05 10:25:52;;;;;;;2.67;1.85;;;-0.70;85.20;;;;;;4975132;28;20471;-69
2022/04/05 10:28:22;;;;;;;2.58;2.00;;;-0.70;86.90;;;;;;4974345;28;20035;-69
2022/04/05 10:30:56;;;;;;;2.42;2.00;;;-0.60;86.40;;;;;;4974726;28;20558;-67
2022/04/05 10:33:48;;;;;;;3.03;1.85;;;-0.10;95.50;;;;;;4974640;28;20035;-73
2022/04/05 10:36:22;;;;;;;1.70;1.55;;;0.40;90.40;;;;;;4956557;28;20449;-71
2022/04/05 10:39:11;;;;;;;2.42;1.80;;;0.40;92.70;;;;;;4974030;28;20074;-70
2022/04/05 10:41:37;;;;;;;2.55;1.98;;;0.70;98.80;;;;;;4963958;28;20053;-70
2022/04/05 10:44:29;;;;;;;1.95;1.80;;;1.00;92.90;;;;;;4958382;28;20035;-70
2022/04/05 10:46:58;;;;;;;2.20;1.85;;;1.20;91.80;;;;;;4963638;28;20037;-70
2022/04/05 10:49:37;;;;;;;1.73;1.57;;;1.30;90.00;;;;;;4959756;28;20054;-70
2022/04/05 10:52:11;;;;;;;3.13;2.08;;;1.40;86.70;;;;;;4967029;28;20478;-70
2022/04/05 10:54:51;;;;;;;2.25;2.05;;;1.40;83.50;;;;;;4970950;28;20038;-70
2022/04/05 10:57:31;;;;;;;1.65;1.55;;;1.30;82.10;;;;;;4968972;28;20442;-71
2022/04/05 11:00:03;;;;;;;2.60;1.95;;;1.60;86.40;;;;;;4973768;28;20030;-71
2022/04/05 11:02:30;;;;;;;2.17;1.98;;;1.80;81.90;;;;;;4974332;28;20178;-71
2022/04/05 11:05:19;;;;;;;3.22;1.90;;;1.90;80.30;;;;;;4972665;28;20397;-71
2022/04/05 11:07:54;;;;;;;3.03;1.90;;;1.90;81.00;;;;;;4966177;28;20442;-68
2022/04/05 11:10:25;;;;;;;2.17;1.85;;;1.80;77.50;;;;;;4974063;28;20037;-68
2022/04/05 11:13:05;;;;;;;1.98;1.77;;;1.70;78.10;;;;;;4974315;28;20077;-68
2022/04/05 11:15:56;;;;;;;2.28;1.75;;;1.40;75.40;;;;;;4974059;28;20026;-72
2022/04/05 11:18:29;;;;;;;3.42;1.92;;;1.40;77.80;;;;;;4974177;28;20035;-72
2022/04/05 11:20:56;;;;;;;1.70;1.58;;;1.40;78.10;;;;;;4973828;28;20023;-72
2022/04/05 11:23:48;;;;;;;2.38;1.83;;;1.40;75.00;;;;;;4973537;28;20081;-72
2022/04/05 11:26:35;;;;;;;2.47;1.63;;;1.00;73.70;;;;;;4973681;28;20516;-71
2022/04/05 11:29:03;;;;;;;2.13;1.85;;;0.80;74.90;;;;;;4973590;28;20078;-71
2022/04/05 11:31:37;;;;;;;2.30;1.65;;;0.70;74.40;;;;;;4973532;28;20521;-70
2022/04/05 11:34:33;;;;;;;2.10;1.90;;;0.60;73.80;;;;;;4972672;28;20026;-71
2022/04/05 11:36:58;;;;;;;3.25;2.15;;;0.90;76.30;;;;;;4972914;28;20054;-70
2022/04/05 11:39:24;;;;;;;3.50;1.95;;;0.80;75.40;;;;;;4972438;28;20083;-70
2022/04/05 11:42:00;;;;;;;3.88;2.10;;;1.00;76.20;;;;;;4972743;28;20478;-70
2022/04/05 11:44:25;;;;;;;2.20;2.00;;;1.00;74.70;;;;;;4972891;28;20085;-71
2022/04/05 11:46:54;;;;;;;2.05;1.90;;;1.10;75.80;;;;;;4973152;28;20030;-72
2022/04/05 11:49:21;;;;;;;2.85;2.20;;;1.20;75.40;;;;;;4972901;28;20045;-68
2022/04/05 11:51:48;;;;;;;2.65;2.15;;;1.20;74.90;;;;;;4972857;28;20023;-68
2022/04/05 11:54:24;;;;;;;2.05;1.85;;;1.10;73.50;;;;;;4973157;28;20034;-68
2022/04/05 11:56:51;;;;;;;3.63;2.17;;;0.90;74.30;;;;;;4973378;28;20030;-72
2022/04/05 11:59:24;;;;;;;5.45;1.65;;;0.80;74.30;;;;;;4972806;28;20027;-67
2022/04/05 12:01:51;;;;;;;3.55;2.00;;;0.90;75.40;;;;;;4973016;28;20107;-68
2022/04/05 12:04:22;;;;;;;2.55;1.90;;;0.90;80.30;;;;;;4972882;28;20034;-71
2022/04/05 12:06:53;;;;;;;1.92;1.75;;;1.10;77.70;;;;;;4973287;28;20402;-70
2022/04/05 12:09:22;;;;;;;7.15;1.90;;;0.90;75.90;;;;;;4972944;28;20073;-69
2022/04/05 12:11:50;;;;;;;3.05;1.98;;;0.80;73.50;;;;;;4972798;28;20019;-71
2022/04/05 12:14:24;;;;;;;2.20;2.00;;;0.80;73.80;;;;;;4973061;28;20054;-66
2022/04/05 12:16:55;;;;;;;1.70;1.60;;;0.70;76.70;;;;;;4972824;28;20038;-70
2022/04/05 12:19:42;;;;;;;1.75;1.35;;;1.10;79.40;;;;;;4972861;28;20027;-71
2022/04/05 12:22:16;;;;;;;3.40;1.63;;;0.90;74.50;;;;;;4973124;28;20070;-71
2022/04/05 12:24:43;;;;;;;6.03;2.05;;;0.60;74.50;;;;;;4971469;28;20550;-72
2022/04/05 12:27:09;;;;;;;2.78;1.90;;;0.40;75.20;;;;;;4973164;28;20031;-73
2022/04/05 12:29:39;;;;;;;2.55;1.27;;;0.30;75.50;;;;;;4972705;28;20030;-73
2022/04/05 12:32:07;;;;;;;2.78;1.98;;;0.30;75.10;;;;;;4972946;28;20360;-71
2022/04/05 12:34:33;;;;;;;2.03;1.85;;;0.20;75.40;;;;;;4972851;28;20085;-71
2022/04/05 12:37:02;;;;;;;3.25;2.20;;;0.10;75.80;;;;;;4972717;28;20113;-70
2022/04/05 12:39:33;;;;;;;2.22;2.03;;;0.10;75.00;;;;;;4972336;28;20049;-72
2022/04/05 12:42:09;;;;;;;2.10;1.90;;;0.20;75.80;;;;;;4975516;28;20035;-72
2022/04/05 12:44:40;;;;;;;1.80;1.70;;;0.20;74.90;;;;;;4976550;28;20030;-73
2022/04/05 12:47:09;;;;;;;3.22;2.13;;;0.20;74.10;;;;;;4976992;28;20078;-72
2022/04/05 12:49:49;;;;;;;2.10;1.60;;;0.10;74.30;;;;;;4976492;28;20023;-72
2022/04/05 12:52:15;;;;;;;3.03;1.75;;;0.00;73.50;;;;;;4976712;28;20065;-72
2022/04/05 12:54:52;;;;;;;3.65;2.00;;;0.00;74.20;;;;;;4974962;28;20054;-72
2022/04/05 12:57:24;;;;;;;3.17;2.13;;;0.00;75.40;;;;;;4976538;28;20114;-70
2022/04/05 12:59:53;;;;;;;2.13;1.92;;;0.00;75.70;;;;;;4976407;28;20097;-72
2022/04/05 13:02:25;;;;;;;2.25;2.00;;;0.00;74.60;;;;;;4976361;28;20035;-70
2022/04/05 13:06:19;;;;;;;3.92;2.15;;;0.00;72.80;;;;;;4976524;28;20107;-70
2022/04/05 13:07:54;;;;;;;3.37;2.00;;;-0.10;72.50;;;;;;4976191;28;20085;-70
2022/04/05 13:10:20;;;;;;;2.50;1.88;;;-0.10;72.90;;;;;;4976229;28;20031;-70
2022/04/05 13:12:47;;;;;;;3.53;2.15;;;0.00;73.40;;;;;;4976073;28;20030;-70
2022/04/05 13:15:13;;;;;;;1.98;1.77;;;0.10;74.90;;;;;;4976441;28;20081;-70
2022/04/05 13:17:39;;;;;;;1.98;1.77;;;0.10;73.40;;;;;;4975827;28;20015;-66
2022/04/05 13:20:09;;;;;;;4.18;1.95;;;0.00;73.20;;;;;;4976011;28;20038;-66
2022/04/05 13:22:34;;;;;;;2.42;1.75;;;0.00;73.20;;;;;;4976214;28;20110;-67
2022/04/05 13:25:03;;;;;;;2.20;2.00;;;-0.10;73.90;;;;;;4976022;28;20474;-66
2022/04/05 13:27:29;;;;;;;2.13;1.58;;;0.00;73.50;;;;;;4976132;28;20030;-69
2022/04/05 13:29:54;;;;;;;2.38;2.15;;;0.10;73.20;;;;;;4975937;28;20035;-69
2022/04/05 13:32:24;;;;;;;4.45;2.00;;;0.10;73.20;;;;;;4976308;28;20054;-76
2022/04/05 13:34:50;;;;;;;2.55;1.95;;;0.20;73.50;;;;;;4975540;28;20039;-69
2022/04/05 13:37:18;;;;;;;2.25;1.75;;;0.10;73.50;;;;;;4975764;28;20081;-69
2022/04/05 13:39:59;;;;;;;2.17;1.98;;;0.10;73.50;;;;;;4974064;28;20059;-70
2022/04/05 13:42:24;;;;;;;;;;;0.00;72.80;;;;;;4974425;28;20489;-76
2022/04/05 13:44:50;;;;;;;3.67;1.90;;;0.00;70.80;;;;;;4975238;28;19910;-75
2022/04/05 13:47:16;;;;;;;2.55;2.08;;;-0.10;71.80;;;;;;4975682;28;20026;-68
2022/04/05 13:49:43;;;;;;;2.40;1.90;;;0.00;74.90;;;;;;4960211;28;20065;-68
2022/04/05 13:52:09;;;;;;;2.60;1.98;;;0.00;73.20;;;;;;4973919;28;20027;-68
2022/04/05 13:54:35;;;;;;;2.75;1.92;;;0.00;72.30;;;;;;4974208;28;20467;-68
2022/04/05 13:57:01;;;;;;;2.08;1.80;;;0.00;72.10;;;;;;4974625;28;20102;-68
2022/04/05 13:59:28;;;;;;;1.27;1.17;;;-0.10;71.60;;;;;;4974624;28;20169;-68
2022/04/05 14:01:54;;;;;;;2.65;1.83;;;-0.20;70.40;;;;;;4974747;28;20046;-68